createdAt,value
2023-05-11T00:00:54.475Z,100936.84
2023-05-11T00:03:43.797Z,100932.00
2023-05-11T00:06:33.424Z,100931.53
2023-05-11T00:09:22.761Z,100940.06
2023-05-11T00:12:12.710Z,100940.06
2023-05-11T00:15:01.982Z,100941.84
2023-05-11T00:17:52.864Z,100936.38
2023-05-11T00:20:42.143Z,100934.56
2023-05-11T00:23:31.376Z,100936.22
2023-05-11T00:26:21.418Z,100931.53
2023-05-11T00:29:10.829Z,100930.22
2023-05-11T00:32:00.237Z,100943.00
2023-05-11T00:34:51.132Z,100944.13
2023-05-11T00:37:40.930Z,100939.44
2023-05-11T00:40:32.233Z,100939.59
2023-05-11T00:43:21.712Z,100941.38
2023-05-11T00:46:11.574Z,100927.16
2023-05-11T00:49:01.492Z,100917.28
2023-05-11T00:51:52.450Z,100947.97
2023-05-11T00:54:42.731Z,100910.75
2023-05-11T00:57:33.448Z,100939.56
2023-05-11T01:00:23.076Z,100946.19
2023-05-11T01:03:15.093Z,100936.81
2023-05-11T01:06:13.286Z,100914.16
2023-05-11T01:09:11.298Z,100955.69
2023-05-11T01:12:15.444Z,100953.53
2023-05-11T01:15:13.063Z,100955.97
2023-05-11T01:18:14.314Z,100954.19
2023-05-11T01:21:04.468Z,100973.25
2023-05-11T01:24:27.809Z,100970.63
2023-05-11T01:27:42.608Z,100960.94
2023-05-11T01:30:35.922Z,100971.28
2023-05-11T01:33:35.369Z,100965.59
2023-05-11T01:36:29.507Z,100961.56
2023-05-11T01:39:34.481Z,100960.75
2023-05-11T01:42:31.756Z,100967.81
2023-05-11T01:45:21.955Z,100978.59
2023-05-11T01:48:17.481Z,100961.66
2023-05-11T01:51:07.296Z,100972.94
2023-05-11T01:53:58.015Z,100976.63
2023-05-11T01:56:49.194Z,100963.22
2023-05-11T01:59:40.626Z,100964.56
2023-05-11T02:02:32.701Z,100973.22
2023-05-11T02:05:25.219Z,100973.47
2023-05-11T02:08:16.900Z,100983.94
2023-05-11T02:11:07.963Z,100987.00
2023-05-11T02:13:59.304Z,100981.22
2023-05-11T02:16:51.604Z,100985.06
2023-05-11T02:19:43.408Z,100975.03
2023-05-11T02:22:35.184Z,100987.97
2023-05-11T02:25:25.563Z,100998.38
2023-05-11T02:28:14.785Z,100981.47
2023-05-11T02:31:11.735Z,100983.75
2023-05-11T02:34:09.157Z,100969.34
2023-05-11T02:37:04.315Z,100971.31
2023-05-11T02:40:06.476Z,100982.47
2023-05-11T02:43:01.806Z,100990.19
2023-05-11T02:45:59.693Z,100999.91
2023-05-11T02:48:54.562Z,101000.06
2023-05-11T02:51:47.703Z,100995.59
2023-05-11T02:54:38.733Z,100989.91
2023-05-11T02:57:29.782Z,100997.00
2023-05-11T03:00:23.877Z,100986.34
2023-05-11T03:03:13.951Z,100989.78
2023-05-11T03:06:03.831Z,101000.75
2023-05-11T03:08:53.331Z,100997.00
2023-05-11T03:11:43.878Z,100999.94
2023-05-11T03:14:36.527Z,100983.28
2023-05-11T03:17:26.416Z,101000.06
2023-05-11T03:20:17.877Z,100996.53
2023-05-11T03:23:08.794Z,100993.41
2023-05-11T03:25:59.141Z,100986.78
2023-05-11T03:28:49.672Z,100994.22
2023-05-11T03:31:40.852Z,100992.16
2023-05-11T03:34:30.297Z,100994.25
2023-05-11T03:37:20.867Z,100993.78
2023-05-11T03:40:13.550Z,100992.66
2023-05-11T03:43:17.613Z,101003.31
2023-05-11T03:46:09.482Z,100991.84
2023-05-11T03:49:01.282Z,100988.94
2023-05-11T03:51:53.914Z,100989.44
2023-05-11T03:54:44.826Z,100993.63
2023-05-11T03:57:34.427Z,101001.56
2023-05-11T04:00:24.833Z,100987.69
2023-05-11T04:03:15.927Z,100995.41
2023-05-11T04:06:07.059Z,100992.19
2023-05-11T04:08:56.399Z,100991.72
2023-05-11T04:11:45.654Z,100999.78
2023-05-11T04:14:35.130Z,101001.59
2023-05-11T04:17:24.443Z,101009.94
2023-05-11T04:20:14.011Z,101013.22
2023-05-11T04:23:04.684Z,101009.47
2023-05-11T04:25:57.873Z,101003.50
2023-05-11T04:28:47.200Z,101015.09
2023-05-11T04:31:36.680Z,101010.22
2023-05-11T04:34:27.009Z,101023.50
2023-05-11T04:37:16.926Z,101014.47
2023-05-11T04:40:10.238Z,101011.25
2023-05-11T04:43:03.041Z,101017.06
2023-05-11T04:45:53.730Z,101013.81
2023-05-11T04:48:47.334Z,101005.09
2023-05-11T04:51:36.701Z,101016.25
2023-05-11T04:54:26.263Z,101017.06
2023-05-11T04:57:16.904Z,101010.75
2023-05-11T05:00:10.061Z,101015.44
2023-05-11T05:02:59.493Z,101025.34
2023-05-11T05:05:48.851Z,101020.47
2023-05-11T05:08:38.147Z,101023.00
2023-05-11T05:11:27.449Z,101022.88
2023-05-11T05:14:18.171Z,101024.81
2023-05-11T05:17:07.814Z,101030.19
2023-05-11T05:19:58.085Z,101032.25
2023-05-11T05:22:47.492Z,101027.41
2023-05-11T05:25:36.699Z,101025.31
2023-05-11T05:28:26.207Z,101030.78
2023-05-11T05:31:16.986Z,101039.19
2023-05-11T05:34:06.635Z,101021.56
2023-05-11T05:36:56.897Z,101027.72
2023-05-11T05:39:48.317Z,101030.97
2023-05-11T05:42:38.202Z,101029.50
2023-05-11T05:45:28.472Z,101024.97
2023-05-11T05:48:19.229Z,101029.84
2023-05-11T05:51:08.704Z,101020.00
2023-05-11T05:53:58.142Z,101030.44
2023-05-11T05:56:47.745Z,101024.63
2023-05-11T05:59:37.366Z,101028.66
2023-05-11T06:02:27.204Z,101037.22
2023-05-11T06:05:17.962Z,101033.50
2023-05-11T06:08:11.051Z,101017.53
2023-05-11T06:11:01.784Z,101046.63
2023-05-11T06:13:51.313Z,101044.03
2023-05-11T06:16:40.610Z,101044.72
2023-05-11T06:19:30.077Z,101041.63
2023-05-11T06:22:20.880Z,101029.38
2023-05-11T06:25:10.925Z,101039.88
2023-05-11T06:28:01.417Z,101046.19
2023-05-11T06:30:50.927Z,101054.44
2023-05-11T06:33:40.500Z,101050.13
2023-05-11T06:36:35.033Z,101050.94
2023-05-11T06:39:26.242Z,101055.13
2023-05-11T06:42:15.694Z,101053.84
2023-05-11T06:45:05.478Z,101055.78
2023-05-11T06:47:56.220Z,101052.38
2023-05-11T06:50:45.565Z,101067.41
2023-05-11T06:53:35.924Z,101068.22
2023-05-11T06:56:27.476Z,101052.06
2023-05-11T06:59:16.817Z,101062.56
2023-05-11T07:02:06.157Z,101058.34
2023-05-11T07:04:55.461Z,101066.44
2023-05-11T07:07:45.165Z,101063.03
2023-05-11T07:10:34.712Z,101063.53
2023-05-11T07:13:25.517Z,101068.53
2023-05-11T07:16:14.991Z,101063.19
2023-05-11T07:19:04.897Z,101073.22
2023-05-11T07:21:54.482Z,101081.28
2023-05-11T07:24:43.821Z,101082.94
2023-05-11T07:27:34.949Z,101078.06
2023-05-11T07:30:26.174Z,101071.63
2023-05-11T07:33:16.000Z,101074.03
2023-05-11T07:36:05.439Z,101075.50
2023-05-11T07:38:54.708Z,101083.41
2023-05-11T07:41:44.265Z,101080.84
2023-05-11T07:44:33.546Z,101079.22
2023-05-11T07:47:25.045Z,101091.53
2023-05-11T07:50:14.578Z,101094.41
2023-05-11T07:53:03.838Z,101090.72
2023-05-11T07:55:53.224Z,101090.22
2023-05-11T07:58:42.459Z,101088.78
2023-05-11T08:01:32.423Z,101098.13
2023-05-11T08:04:23.113Z,101099.94
2023-05-11T08:07:12.427Z,101094.91
2023-05-11T08:10:01.844Z,101096.34
2023-05-11T08:12:51.271Z,101100.06
2023-05-11T08:15:40.486Z,101103.25
2023-05-11T08:18:29.773Z,101107.91
2023-05-11T08:21:20.506Z,101107.09
2023-05-11T08:24:10.042Z,101108.66
2023-05-11T08:26:59.347Z,101108.53
2023-05-11T08:29:48.566Z,101111.00
2023-05-11T08:32:57.092Z,101106.09
2023-05-11T08:35:48.091Z,101106.03
2023-05-11T08:38:38.753Z,101110.34
2023-05-11T08:41:28.008Z,101114.44
2023-05-11T08:44:17.837Z,101102.47
2023-05-11T08:47:21.779Z,101102.16
2023-05-11T08:50:13.019Z,101112.03
2023-05-11T08:53:02.337Z,101102.13
2023-05-11T08:55:53.297Z,101120.16
2023-05-11T08:58:43.815Z,101106.06
2023-05-11T09:01:33.638Z,101112.97
2023-05-11T09:04:26.008Z,101108.72
2023-05-11T09:07:18.708Z,101099.13
2023-05-11T09:10:11.480Z,101111.75
2023-05-11T09:13:03.757Z,101115.56
2023-05-11T09:15:54.050Z,101100.94
2023-05-11T09:18:50.338Z,101100.91
2023-05-11T09:21:40.349Z,101099.63
2023-05-11T09:24:30.121Z,101105.03
2023-05-11T09:27:21.686Z,101105.13
2023-05-11T09:33:11.809Z,101114.16
2023-05-11T09:36:02.965Z,101123.13
2023-05-11T09:38:57.376Z,101118.56
2023-05-11T09:41:46.961Z,101118.81
2023-05-11T09:44:36.290Z,101111.41
2023-05-11T09:47:27.681Z,101107.63
2023-05-11T09:50:26.355Z,101104.13
2023-05-11T09:53:16.178Z,101098.84
2023-05-11T09:56:05.973Z,101106.13
2023-05-11T09:58:57.890Z,101108.75
2023-05-11T10:01:47.227Z,101097.19
2023-05-11T10:04:38.029Z,101097.72
2023-05-11T10:07:32.617Z,101088.78
2023-05-11T10:10:21.900Z,101103.22
2023-05-11T10:13:11.185Z,101119.66
2023-05-11T10:16:04.578Z,101114.47
2023-05-11T10:18:54.218Z,101112.19
2023-05-11T10:21:46.472Z,101119.69
2023-05-11T10:24:37.011Z,101121.66
2023-05-11T10:27:27.180Z,101102.31
2023-05-11T10:30:17.688Z,101106.34
2023-05-11T10:33:08.737Z,101086.75
2023-05-11T10:35:59.065Z,101097.91
2023-05-11T10:38:49.890Z,101096.66
2023-05-11T10:41:51.626Z,101093.28
2023-05-11T10:45:01.616Z,101097.44
2023-05-11T10:48:32.180Z,101093.50
2023-05-11T10:51:55.781Z,101096.38
2023-05-11T10:54:56.544Z,101104.41
2023-05-11T10:58:03.683Z,101090.41
2023-05-11T11:01:40.720Z,101072.50
2023-05-11T11:04:46.309Z,101105.25
2023-05-11T11:08:00.386Z,101097.31
2023-05-11T11:10:51.690Z,101113.41
2023-05-11T11:13:59.489Z,101129.13
2023-05-11T11:17:25.781Z,101125.13
2023-05-11T11:20:48.875Z,101124.38
2023-05-11T11:23:50.386Z,101127.94
2023-05-11T11:26:52.012Z,101121.59
2023-05-11T11:29:42.174Z,101125.53
2023-05-11T11:32:31.600Z,101108.59
2023-05-11T11:35:54.296Z,101105.81
2023-05-11T11:38:59.746Z,101103.53
2023-05-11T11:42:02.817Z,101117.75
2023-05-11T11:44:52.020Z,101124.00
2023-05-11T11:47:42.181Z,101133.13
2023-05-11T11:50:31.677Z,101124.63
2023-05-11T11:54:09.874Z,101139.00
2023-05-11T11:57:01.777Z,101133.50
2023-05-11T11:59:51.158Z,101132.91
2023-05-11T12:02:43.845Z,101152.13
2023-05-11T12:05:36.367Z,101146.00
2023-05-11T12:08:27.768Z,101140.94
2023-05-11T12:11:19.124Z,101140.78
2023-05-11T12:14:12.008Z,101154.22
2023-05-11T12:17:15.648Z,101144.34
2023-05-11T12:20:16.881Z,101154.84
2023-05-11T12:23:06.372Z,101152.88
2023-05-11T12:26:03.578Z,101153.69
2023-05-11T12:28:53.780Z,101149.00
2023-05-11T12:31:46.239Z,101143.09
2023-05-11T12:34:35.459Z,101149.34
2023-05-11T12:37:25.959Z,101155.72
2023-05-11T12:40:16.028Z,101158.72
2023-05-11T12:43:05.320Z,101163.03
2023-05-11T12:45:54.689Z,101160.13
2023-05-11T12:48:46.564Z,101166.19
2023-05-11T12:51:48.777Z,101153.78
2023-05-11T12:54:40.712Z,101167.25
2023-05-11T12:57:31.363Z,101174.13
2023-05-11T13:00:22.031Z,101182.66
2023-05-11T13:03:12.302Z,101178.41
2023-05-11T13:06:11.708Z,101169.03
2023-05-11T13:09:01.166Z,101178.19
2023-05-11T13:11:50.717Z,101174.38
2023-05-11T13:14:40.116Z,101182.16
2023-05-11T13:17:33.280Z,101179.56
2023-05-11T13:20:24.596Z,101183.47
2023-05-11T13:23:17.123Z,101178.47
2023-05-11T13:26:06.541Z,101175.38
2023-05-11T13:29:09.422Z,101172.00
2023-05-11T13:31:59.914Z,101183.00
2023-05-11T13:34:49.189Z,101177.78
2023-05-11T13:37:38.621Z,101172.81
2023-05-11T13:40:29.415Z,101174.25
2023-05-11T13:43:19.073Z,101174.25
2023-05-11T13:46:08.897Z,101176.66
2023-05-11T13:49:00.378Z,101176.25
2023-05-11T13:51:49.837Z,101184.78
2023-05-11T13:54:39.203Z,101179.56
2023-05-11T13:57:30.180Z,101190.19
2023-05-11T14:00:20.749Z,101184.19
2023-05-11T14:03:10.094Z,101186.97
2023-05-11T14:06:00.035Z,101190.66
2023-05-11T14:08:49.769Z,101198.00
2023-05-11T14:11:39.756Z,101203.84
2023-05-11T14:14:30.420Z,101202.19
2023-05-11T14:17:19.667Z,101207.66
2023-05-11T14:20:10.877Z,101211.28
2023-05-11T14:23:00.489Z,101204.22
2023-05-11T14:25:49.805Z,101211.00
2023-05-11T14:28:40.181Z,101215.00
2023-05-11T14:31:31.772Z,101216.59
2023-05-11T14:34:21.542Z,101221.03
2023-05-11T14:37:11.006Z,101227.63
2023-05-11T14:40:00.964Z,101226.72
2023-05-11T14:42:50.177Z,101233.13
2023-05-11T14:45:39.604Z,101230.53
2023-05-11T14:48:32.950Z,101235.31
2023-05-11T14:51:22.181Z,101235.81
2023-05-11T14:54:11.627Z,101238.03
2023-05-11T14:57:01.087Z,101238.19
2023-05-11T14:59:59.062Z,101235.56
2023-05-11T15:02:49.955Z,101236.06
2023-05-11T15:05:46.929Z,101242.28
2023-05-11T15:08:42.553Z,101235.31
2023-05-11T15:11:34.675Z,101246.38
2023-05-11T15:14:23.915Z,101244.66
2023-05-11T15:17:15.042Z,101254.41
2023-05-11T15:20:06.855Z,101256.25
2023-05-11T15:22:57.674Z,101260.13
2023-05-11T15:25:47.017Z,101262.84
2023-05-11T15:28:36.311Z,101263.44
2023-05-11T15:31:25.697Z,101273.31
2023-05-11T15:34:14.985Z,101276.50
2023-05-11T15:37:04.345Z,101279.72
2023-05-11T15:39:55.008Z,101277.09
2023-05-11T15:42:44.333Z,101287.63
2023-05-11T15:45:39.345Z,101286.41
2023-05-11T15:48:28.685Z,101276.44
2023-05-11T15:51:17.959Z,101280.13
2023-05-11T15:54:08.061Z,101283.63
2023-05-11T15:56:58.816Z,101289.38
2023-05-11T15:59:48.772Z,101289.50
2023-05-11T16:02:38.353Z,101286.03
2023-05-11T16:05:29.916Z,101292.03
2023-05-11T16:08:19.638Z,101306.34
2023-05-11T16:11:09.254Z,101303.81
2023-05-11T16:14:00.065Z,101311.97
2023-05-11T16:16:49.490Z,101314.50
2023-05-11T16:19:38.780Z,101329.53
2023-05-11T16:22:28.190Z,101329.03
2023-05-11T16:25:17.666Z,101332.81
2023-05-11T16:28:07.148Z,101332.47
2023-05-11T16:30:59.294Z,101348.72
2023-05-11T16:33:48.893Z,101348.25
2023-05-11T16:36:42.401Z,101355.50
2023-05-11T16:39:31.823Z,101365.19
2023-05-11T16:42:21.142Z,101360.56
2023-05-11T16:45:12.888Z,101375.56
2023-05-11T16:48:03.646Z,101374.50
2023-05-11T16:50:53.388Z,101386.25
2023-05-11T16:53:43.153Z,101397.06
2023-05-11T16:56:34.278Z,101396.19
2023-05-11T16:59:23.527Z,101402.38
2023-05-11T17:02:12.836Z,101409.69
2023-05-11T17:05:05.592Z,101411.81
2023-05-11T17:07:54.971Z,101428.16
2023-05-11T17:10:44.201Z,101434.03
2023-05-11T17:13:34.044Z,101445.88
2023-05-11T17:16:23.373Z,101432.88
2023-05-11T17:19:12.651Z,101447.09
2023-05-11T17:22:03.607Z,101452.22
2023-05-11T17:24:53.171Z,101457.13
2023-05-11T17:27:43.066Z,101463.94
2023-05-11T17:30:47.530Z,101471.09
2023-05-11T17:33:37.765Z,101468.66
2023-05-11T17:36:29.413Z,101478.50
2023-05-11T17:39:20.174Z,101465.97
2023-05-11T17:42:12.106Z,101479.25
2023-05-11T17:45:01.588Z,101484.31
2023-05-11T17:47:53.032Z,101497.00
2023-05-11T17:50:43.238Z,101495.28
2023-05-11T17:53:32.662Z,101509.25
2023-05-11T17:56:23.504Z,101510.34
2023-05-11T17:59:12.734Z,101516.78
2023-05-11T18:02:02.122Z,101519.72
2023-05-11T18:04:51.479Z,101531.34
2023-05-11T18:07:41.744Z,101531.00
2023-05-11T18:10:31.064Z,101533.66
2023-05-11T18:13:22.744Z,101540.84
2023-05-11T18:16:12.103Z,101546.25
2023-05-11T18:19:01.432Z,101555.19
2023-05-11T18:21:52.225Z,101559.56
2023-05-11T18:24:41.997Z,101554.38
2023-05-11T18:27:31.493Z,101567.66
2023-05-11T18:30:22.454Z,101579.00
2023-05-11T18:33:11.944Z,101572.03
2023-05-11T18:36:03.378Z,101586.91
2023-05-11T18:38:52.835Z,101589.81
2023-05-11T18:41:42.266Z,101600.81
2023-05-11T18:44:32.082Z,101604.38
2023-05-11T18:47:23.368Z,101608.28
2023-05-11T18:50:13.254Z,101596.97
2023-05-11T18:53:02.542Z,101621.38
2023-05-11T18:55:53.516Z,101617.59
2023-05-11T18:58:43.264Z,101631.09
2023-05-11T19:01:46.665Z,101641.00
2023-05-11T19:04:38.165Z,101646.72
2023-05-11T19:07:27.647Z,101649.97
2023-05-11T19:10:18.237Z,101654.53
2023-05-11T19:13:07.643Z,101662.25
2023-05-11T19:15:56.876Z,101661.34
2023-05-11T19:18:46.335Z,101672.56
2023-05-11T19:21:40.563Z,101670.19
2023-05-11T19:24:29.992Z,101683.53
2023-05-11T19:27:19.400Z,101689.19
2023-05-11T19:30:10.347Z,101693.91
2023-05-11T19:32:59.630Z,101704.91
2023-05-11T19:35:49.016Z,101709.91
2023-05-11T19:38:39.627Z,101716.75
2023-05-11T19:41:29.042Z,101717.03
2023-05-11T19:44:18.998Z,101723.88
2023-05-11T19:47:08.224Z,101731.94
2023-05-11T19:49:57.565Z,101733.22
2023-05-11T19:52:47.581Z,101739.72
2023-05-11T19:55:38.369Z,101736.75
2023-05-11T19:58:27.789Z,101746.44
2023-05-11T20:01:17.215Z,101753.91
2023-05-11T20:04:06.701Z,101750.78
2023-05-11T20:06:57.522Z,101743.59
2023-05-11T20:09:46.903Z,101757.19
2023-05-11T20:12:38.594Z,101755.31
2023-05-11T20:15:27.950Z,101772.81
2023-05-11T20:18:19.703Z,101780.72
2023-05-11T20:21:09.194Z,101783.34
2023-05-11T20:23:58.753Z,101787.09
2023-05-11T20:26:47.995Z,101795.34
2023-05-11T20:29:40.422Z,101802.16
2023-05-11T20:32:29.749Z,101803.06
2023-05-11T20:35:19.942Z,101807.44
2023-05-11T20:38:09.429Z,101806.31
2023-05-11T20:40:58.968Z,101812.97
2023-05-11T20:43:48.260Z,101810.53
2023-05-11T20:46:38.932Z,101823.31
2023-05-11T20:49:38.463Z,101818.22
2023-05-11T20:52:28.425Z,101824.66
2023-05-11T20:55:17.853Z,101824.41
2023-05-11T20:58:07.433Z,101829.72
2023-05-11T21:00:56.708Z,101841.53
2023-05-11T21:03:47.678Z,101843.78
2023-05-11T21:06:36.964Z,101849.63
2023-05-11T21:09:26.483Z,101843.91
2023-05-11T21:12:16.113Z,101850.34
2023-05-11T21:15:07.227Z,101852.59
2023-05-11T21:17:56.493Z,101854.84
2023-05-11T21:20:47.349Z,101853.53
2023-05-11T21:23:37.171Z,101859.34
2023-05-11T21:26:26.556Z,101859.13
2023-05-11T21:29:15.938Z,101856.69
2023-05-11T21:32:06.846Z,101858.13
2023-05-11T21:34:56.184Z,101847.34
2023-05-11T21:37:49.757Z,101873.94
2023-05-11T21:40:39.298Z,101879.75
2023-05-11T21:43:28.490Z,101888.31
2023-05-11T21:46:17.721Z,101888.09
2023-05-11T21:49:07.005Z,101891.47
2023-05-11T21:51:56.234Z,101910.22
2023-05-11T21:54:46.833Z,101916.63
2023-05-11T21:57:36.270Z,101918.88
2023-05-11T22:00:26.677Z,101917.84
2023-05-11T22:03:16.153Z,101916.03
2023-05-11T22:06:05.966Z,101915.81
2023-05-11T22:08:55.307Z,101928.25
2023-05-11T22:11:45.929Z,101934.88
2023-05-11T22:14:35.216Z,101934.59
2023-05-11T22:17:24.554Z,101936.13
2023-05-11T22:20:14.653Z,101943.28
2023-05-11T22:23:04.633Z,101939.72
2023-05-11T22:25:54.466Z,101945.00
2023-05-11T22:28:45.441Z,101939.06
2023-05-11T22:31:34.891Z,101957.50
2023-05-11T22:34:24.465Z,101961.06
2023-05-11T22:37:16.950Z,101971.03
2023-05-11T22:40:08.098Z,101963.69
2023-05-11T22:42:57.374Z,101973.94
2023-05-11T22:45:48.540Z,101981.66
2023-05-11T22:48:37.972Z,101979.59
2023-05-11T22:51:27.390Z,101982.66
2023-05-11T22:54:16.945Z,101983.78
2023-05-11T22:57:06.667Z,101989.84
2023-05-11T22:59:55.958Z,101996.47
2023-05-11T23:02:46.710Z,101988.03
2023-05-11T23:05:37.240Z,101977.91
2023-05-11T23:08:26.892Z,101991.28
2023-05-11T23:11:16.267Z,102002.28
2023-05-11T23:14:05.502Z,101995.16
2023-05-11T23:16:54.810Z,102000.94
2023-05-11T23:19:45.609Z,101993.69
2023-05-11T23:22:35.133Z,102006.81
2023-05-11T23:25:25.896Z,102002.75
2023-05-11T23:28:15.373Z,102007.69
2023-05-11T23:31:04.628Z,102013.28
2023-05-11T23:34:00.597Z,102013.13
2023-05-11T23:36:51.333Z,102020.84
2023-05-11T23:39:46.803Z,102026.31
2023-05-11T23:42:41.009Z,102035.69
2023-05-11T23:45:30.858Z,102030.53
2023-05-11T23:48:23.016Z,102047.88
2023-05-11T23:51:16.626Z,102037.75
2023-05-11T23:54:09.671Z,102044.66
2023-05-11T23:56:59.898Z,102044.94
2023-05-11T23:59:49.129Z,102057.84
